Share

Tuba City, AZ

Kerley Valley (KAZTUBAC4) Elev 4587 ft | 36.11 °N, 111.25 °W | Change Station

Current weather conditions updated 3 minutes ago

Clear
Clear
45.9 °F
Feels Like 44 °F
N
3.8
Wind Variable Wind from ENE
Sunrise 6:46 AM
Sunset 8:02 PM
Moon Waning Gibbous

Today is forecast to be nearly the same temperature as yesterday.

Pressure 30.11 in
Visibility 3.0 miles
Clouds Clear
Windchill 44 °F
Dew Point 44 °F
Humidity 94%
Rainfall 0.00 in
Snow Depth Not available.
UV 0 out of 16
Pollen 8.00 out of 12
Air Quality Not available.
Flu Activity Local Activity
SPECI KGCN 191236Z AUTO 00000KT 3SM BR CLR 01/01 A3011 RMK AO2 T00060006

More Conditions Fewer Conditions

Pressure 30.11 in
Visibility 3.0 miles
Clouds Clear
Windchill 44 °F
Dew Point 44 °F
Humidity 94%
Rainfall 0.00 in
Snow Depth Not available.
UV 0 out of 16
Pollen 8.00 out of 12
Air Quality Not available.
Flu Activity Local Activity
SPECI KGCN 191236Z AUTO 00000KT 3SM BR CLR 01/01 A3011 RMK AO2 T00060006

More Conditions Fewer Conditions

10-Day Weather Forecast

Almanac

Astronomy

Apr. 19, 2014 Rise Set
Actual Time 6:46 AM MDT 8:02 PM MDT
Civil Twilight 6:19 AM MDT 8:29 PM MDT
Nautical Twilight 5:47 AM MDT 9:00 PM MDT
Astronomical Twilight 5:14 AM MDT 9:34 PM MDT
Moon No Moon Rise 10:12 AM MDT
Length of Visible Light 14h 09m
Length of Day
13h 15m
Tomorrow will be 2m 8s longer.
Waning Gibbous, 80% of the Moon is Illuminated
Today
Waning Gibbous
Apr 22
Last Quarter
Apr 29
New
May 6
First Quarter
May 14
Full

Today's Extremes

State Highs State Lows

Community

  • Bleeding Hearts
    Bleeding Hearts
  • Sunset Silhouettes
    Sunset Silhouettes
  • FL sunset Perico Isle
    FL sunset Perico Isle
  • Cloudy spring view
    Cloudy spring view
  • Old barn
    Old barn

WunderPhotos

Upload Photos

1,702,705 photos uploaded!

Nearby

Snow Depth

Station Depth Elevation
Snowslide Canyon 6 in 9730 ft
Mormon Mountain 0 in 7500 ft
White Horse Lake 0 in 7180 ft
Happy Jack 1 in 7630 ft
Baker Butte 0 in 7300 ft

Coastal Water Temperatures

Place Temperature
No Stations Reporting

Earthquake Activity

City Distance Mag. Time & Date
No recent earthquake activity has been reported nearby.
Minimum magnitude displayed is 2.5.

Nearby Weather Stations

Station Location Temp. Windchill Dew Point Humidity Wind Precip. Elev Updated Type
Kerley Valley, Tuba City, AZ 45.9 °F 44 °F 44 °F 94% ENE  at  3.8 mph - / hr 4587 ft 5:39 AM MST Normal

Show More Stations Show Fewer Stations

What do you think?

We're not finished. Please let us know what you like, what you don't like, and what you are still missing.